createdAt,value
2018-09-28T00:02:17.138Z,1.26
2018-09-28T00:08:12.145Z,1.32
2018-09-28T00:14:07.208Z,1.11
2018-09-28T00:20:02.153Z,1.23
2018-09-28T00:25:57.164Z,1.19
2018-09-28T00:31:52.166Z,1.17
2018-09-28T00:37:47.173Z,1.17
2018-09-28T00:43:42.173Z,1.11
2018-09-28T00:49:37.199Z,1.38
2018-09-28T00:55:32.202Z,1.11
2018-09-28T01:01:27.194Z,1.33
2018-09-28T01:07:22.211Z,1.1
2018-09-28T01:13:17.204Z,1.15
2018-09-28T01:19:12.246Z,1
2018-09-28T01:25:07.226Z,1.36
2018-09-28T01:31:02.209Z,1.08
2018-09-28T01:36:57.267Z,1.13
2018-09-28T01:42:52.254Z,1.09
2018-09-28T01:48:47.244Z,1.25
2018-09-28T01:54:42.242Z,1.22
2018-09-28T02:00:37.319Z,0.97
2018-09-28T02:06:32.259Z,1.06
2018-09-28T02:12:27.294Z,1
2018-09-28T02:18:22.269Z,1.4
2018-09-28T02:24:17.314Z,1.16
2018-09-28T02:30:12.270Z,0.99
2018-09-28T02:36:07.295Z,1.02
2018-09-28T02:42:02.294Z,1.16
2018-09-28T02:47:57.300Z,0.94
2018-09-28T02:53:52.381Z,0.84
2018-09-28T02:59:47.308Z,0.98
2018-09-28T03:05:42.307Z,0.94
2018-09-28T03:11:37.316Z,0.87
2018-09-28T03:17:32.327Z,0.99
2018-09-28T03:23:27.333Z,1.14
2018-09-28T03:29:22.419Z,1.02
2018-09-28T03:35:17.341Z,0.91
2018-09-28T03:41:12.393Z,0.98
2018-09-28T03:47:07.457Z,0.89
2018-09-28T03:53:02.371Z,0.95
2018-09-28T03:58:57.420Z,0.73
2018-09-28T04:04:52.377Z,0.94
2018-09-28T04:10:47.366Z,1.1
2018-09-28T04:16:42.381Z,0.89
2018-09-28T04:22:37.404Z,0.78
2018-09-28T04:28:32.415Z,0.93
2018-09-28T04:34:27.432Z,0.96
2018-09-28T04:40:22.423Z,0.92
2018-09-28T04:46:17.439Z,1
2018-09-28T04:52:12.417Z,0.93
2018-09-28T04:58:07.441Z,1.18
2018-09-28T05:04:02.406Z,0.91
2018-09-28T05:09:57.461Z,1.09
2018-09-28T05:15:52.442Z,1.53
2018-09-28T05:21:47.433Z,1.5
2018-09-28T05:27:42.452Z,1.74
2018-09-28T05:33:37.448Z,1.26
2018-09-28T05:39:32.554Z,1.34
2018-09-28T05:45:27.475Z,2
2018-09-28T05:51:22.513Z,1.94
2018-09-28T05:57:17.473Z,1.74
2018-09-28T06:03:12.482Z,2.07
2018-09-28T06:09:07.472Z,1.55
2018-09-28T06:15:02.505Z,1.97
2018-09-28T06:20:57.478Z,1.49
2018-09-28T06:26:52.510Z,1.94
2018-09-28T06:32:47.562Z,3.78
2018-09-28T06:38:42.508Z,4.14
2018-09-28T06:44:37.612Z,2.93
2018-09-28T06:50:32.608Z,3.62
2018-09-28T06:56:27.518Z,4.85
2018-09-28T07:02:22.567Z,4.2
2018-09-28T07:08:17.549Z,4.78
2018-09-28T07:14:12.578Z,3.5
2018-09-28T07:20:07.531Z,4.1
2018-09-28T07:26:02.652Z,4.1
2018-09-28T07:31:57.550Z,3.59
2018-09-28T07:37:52.575Z,3.22
2018-09-28T07:43:47.576Z,4.29
2018-09-28T07:49:42.577Z,4.2
2018-09-28T07:55:37.654Z,4.38
2018-09-28T08:01:32.568Z,3.05
2018-09-28T08:07:27.597Z,3.44
2018-09-28T08:13:22.601Z,2.74
2018-09-28T08:19:17.604Z,4.69
2018-09-28T08:25:12.584Z,3.57
2018-09-28T08:31:07.611Z,2.27
2018-09-28T08:37:02.607Z,3.14
2018-09-28T08:42:57.664Z,3.39
2018-09-28T08:48:52.628Z,3.31
2018-09-28T08:54:47.634Z,3.03
2018-09-28T09:00:42.662Z,2.54
2018-09-28T09:06:37.655Z,2.94
2018-09-28T09:12:32.666Z,3.03
2018-09-28T09:18:27.660Z,2.73
2018-09-28T09:24:22.669Z,3.43
2018-09-28T09:30:17.798Z,2.77
2018-09-28T09:36:12.657Z,1.93
2018-09-28T09:42:07.737Z,2.17
2018-09-28T09:48:02.728Z,2.4
2018-09-28T09:53:57.679Z,2.24
2018-09-28T09:59:52.708Z,2.06
2018-09-28T10:05:47.688Z,3.57
2018-09-28T10:11:42.728Z,2.38
2018-09-28T10:17:37.700Z,2.69
2018-09-28T10:23:32.774Z,2.48
2018-09-28T10:29:27.772Z,2.74
2018-09-28T10:35:22.737Z,2.67
2018-09-28T10:41:17.821Z,2.97
2018-09-28T10:47:12.743Z,3.14
2018-09-28T10:53:07.878Z,2.52
2018-09-28T10:59:02.746Z,2.2
2018-09-28T11:04:57.788Z,5.08
2018-09-28T11:10:52.777Z,2.07
2018-09-28T11:16:47.816Z,2.01
2018-09-28T11:22:42.755Z,1.99
2018-09-28T11:28:37.798Z,2.19
2018-09-28T11:34:32.793Z,2.23
2018-09-28T11:40:29.587Z,1.67
2018-09-28T11:46:22.791Z,2.26
2018-09-28T11:52:17.790Z,1.6
2018-09-28T11:58:12.839Z,1.76
2018-09-28T12:04:07.809Z,1.47
2018-09-28T12:10:02.818Z,2.19
2018-09-28T12:15:57.835Z,1.99
2018-09-28T12:21:52.834Z,2.15
2018-09-28T12:27:47.938Z,1.47
2018-09-28T12:33:42.897Z,1.4
2018-09-28T12:39:38.004Z,1.29
2018-09-28T12:45:32.972Z,1.21
2018-09-28T12:51:27.851Z,1.3
2018-09-28T12:57:22.875Z,1.31
2018-09-28T13:03:17.900Z,1.47
2018-09-28T13:09:12.870Z,1.66
2018-09-28T13:15:08.147Z,1.53
2018-09-28T13:21:02.878Z,1.35
2018-09-28T13:26:57.907Z,1.39
2018-09-28T13:32:53.000Z,1.38
2018-09-28T13:38:47.923Z,1.61
2018-09-28T13:44:43.017Z,1.55
2018-09-28T13:50:37.960Z,2.84
2018-09-28T13:56:32.978Z,1.63
2018-09-28T18:03:44.156Z,2.67
2018-09-28T18:09:39.147Z,1.97
2018-09-28T18:15:34.164Z,2.09
2018-09-28T18:21:29.158Z,1.81
2018-09-28T18:27:24.282Z,1.97
2018-09-28T18:33:19.221Z,1.82
2018-09-28T18:39:14.209Z,1.8
2018-09-28T18:45:09.177Z,1.62
2018-09-28T18:51:04.220Z,1.85
2018-09-28T18:56:59.174Z,2.1
2018-09-28T19:02:54.212Z,1.64
2018-09-28T19:08:49.296Z,1.66
2018-09-28T19:14:44.258Z,1.49
2018-09-28T19:20:39.197Z,1.62
2018-09-28T19:26:34.276Z,1.79
2018-09-28T19:32:29.237Z,2.24
2018-09-28T19:38:24.211Z,1.82
2018-09-28T19:44:19.222Z,1.8
2018-09-28T19:50:14.273Z,2.05
2018-09-28T19:56:09.303Z,2.43
2018-09-28T20:02:04.251Z,1.78
2018-09-28T20:07:59.278Z,2.03
2018-09-28T20:13:54.323Z,1.9
2018-09-28T20:19:49.287Z,2.07
2018-09-28T20:25:44.312Z,1.76
2018-09-28T20:31:39.292Z,2.22
2018-09-28T20:37:34.346Z,1.76
2018-09-28T20:43:29.392Z,1.63
2018-09-28T20:49:24.309Z,1.75
2018-09-28T20:55:19.295Z,1.93
2018-09-28T21:01:14.301Z,2.15
2018-09-28T21:07:09.321Z,1.91
2018-09-28T21:13:04.323Z,1.69
2018-09-28T21:18:59.378Z,1.88
2018-09-28T21:24:54.329Z,1.71
2018-09-28T21:30:49.369Z,1.87
2018-09-28T21:36:44.373Z,1.73
2018-09-28T21:42:39.384Z,2.04
2018-09-28T21:48:34.410Z,1.77
2018-09-28T21:54:29.385Z,1.51
2018-09-28T22:00:24.360Z,1.61
2018-09-28T22:06:19.385Z,1.87
2018-09-28T22:12:14.371Z,1.97
2018-09-28T22:18:09.366Z,1.72
2018-09-28T22:24:04.459Z,1.87
2018-09-28T22:29:59.423Z,2.08
2018-09-28T22:35:54.467Z,1.65
2018-09-28T22:41:49.415Z,1.58
2018-09-28T22:47:44.442Z,1.64
2018-09-28T22:53:39.429Z,1.77
2018-09-28T22:59:34.403Z,1.66
2018-09-28T23:05:29.432Z,1.92
2018-09-28T23:11:24.425Z,1.47
2018-09-28T23:17:19.428Z,1.83
2018-09-28T23:23:14.433Z,1.73
2018-09-28T23:29:09.475Z,1.28
2018-09-28T23:35:04.448Z,1.51
2018-09-28T23:40:59.492Z,1.59
2018-09-28T23:46:54.479Z,1.76
2018-09-28T23:52:49.464Z,1.45
2018-09-28T23:58:44.478Z,1.62
